Alexander City, AL

6:41 AM CDT on August 30, 2015 (GMT -0500)
Russell | | Change Station
CLOSE
Current Station
Airport
Location: Alexander City,
Elevation: 686 ft
Nearby Weather Stations

Elev 686 ft 32.91 °N, 85.96 °W | Updated 6 minutes ago

Overcast
Overcast
74 °F
Feels Like 74 °F
N
0
Wind Variable Wind from North

Today
High -- | Low -- °F
--% Chance of Precip.
Yesterday
High -- | Low -- °F
Precip. -- in
6:16 AM 7:11 PM
Full, 99% visible
Pressure 30.07 in
Visibility 7.0 miles
Clouds Mostly Cloudy 500 ft
Overcast 1000 ft
Dew Point 72 °F
Humidity 94%
Rainfall 0.33 in
Snow Depth Not available.
UV 0 out of 12
Pollen 8.60 out of 12
Air Quality Not available.
Flu Activity Not available.
METAR KALX 301135Z AUTO 00000KT 7SM BKN005 OVC010 24/23 A3007 RMK AO2 LTG DSNT E SE AND NW T02350225
Pressure 30.07 in
Visibility 7.0 miles
Clouds Mostly Cloudy 500 ft
Overcast 1000 ft
Dew Point 72 °F
Humidity 94%
Rainfall 0.33 in
Snow Depth Not available.
UV 0 out of 12
Pollen 8.60 out of 12
Air Quality Not available.
Flu Activity Not available.
METAR KALX 301135Z AUTO 00000KT 7SM BKN005 OVC010 24/23 A3007 RMK AO2 LTG DSNT E SE AND NW T02350225

10-Day Weather Forecast

×

Almanac

Astronomy

Aug. 30, 2015 Rise Set
Actual Time
Civil Twilight
Nautical Twilight
Astronomical Twilight
Moon
Length of Visible Light
Length of Day
Tomorrow will be .
, % of the Moon is Illuminated

Today's Extremes

State Highs State Lows

Community

WunderPhotos

Upload Photos

1,850,930 photos uploaded!

WunderBlogs® & News

Nearby

Air Quality

  Air Quality AQ Index Pollutant
Not available.

Snow Depth

Station Depth Elevation

Earthquake Activity

City Distance Mag. Time & Date
Minimum magnitude displayed is 2.5.

Coastal Water Temperatures

Place Temperature

Stations

Nearby Weather Stations

Station Location Temp. Windchill Dew Point Humidity Wind Precip. Elev Updated Type